createdAt,value
2018-06-29T00:00:43.745Z,95.50
2018-06-29T00:03:12.207Z,95.70
2018-06-29T00:05:40.866Z,95.60
2018-06-29T00:08:09.359Z,95.50
2018-06-29T00:10:38.407Z,95.70
2018-06-29T00:13:07.491Z,95.70
2018-06-29T00:15:35.728Z,95.80
2018-06-29T00:18:04.407Z,96.10
2018-06-29T00:20:33.260Z,96.20
2018-06-29T00:25:29.892Z,96.00
2018-06-29T00:27:58.375Z,95.90
2018-06-29T00:30:26.934Z,96.40
2018-06-29T00:32:55.635Z,96.40
2018-06-29T00:35:24.266Z,96.00
2018-06-29T00:37:53.619Z,95.70
2018-06-29T00:40:22.124Z,95.60
2018-06-29T00:42:51.407Z,95.80
2018-06-29T00:45:19.975Z,95.90
2018-06-29T00:47:48.504Z,96.10
2018-06-29T00:50:17.151Z,96.10
2018-06-29T00:55:14.194Z,96.30
2018-06-29T00:57:43.897Z,95.60
2018-06-29T01:00:12.783Z,95.70
2018-06-29T01:02:41.280Z,96.00
2018-06-29T01:05:10.695Z,96.10
2018-06-29T01:07:39.255Z,96.50
2018-06-29T01:10:07.934Z,96.40
2018-06-29T01:12:37.128Z,96.70
2018-06-29T01:15:06.057Z,96.70
2018-06-29T01:17:34.585Z,96.60
2018-06-29T01:20:03.484Z,96.40
2018-06-29T01:22:32.052Z,96.20
2018-06-29T01:25:00.558Z,96.80
2018-06-29T01:27:29.728Z,97.20
2018-06-29T01:29:58.947Z,97.30
2018-06-29T01:32:27.980Z,97.20
2018-06-29T01:34:56.508Z,97.30
2018-06-29T01:37:25.219Z,97.20
2018-06-29T01:39:53.774Z,97.40
2018-06-29T01:42:22.335Z,97.20
2018-06-29T01:44:51.071Z,97.40
2018-06-29T01:47:19.980Z,97.40
2018-06-29T01:49:48.718Z,97.50
2018-06-29T01:52:18.118Z,97.40
2018-06-29T01:54:46.557Z,97.60
2018-06-29T01:57:15.077Z,97.50
2018-06-29T01:59:43.606Z,97.80
2018-06-29T02:02:12.112Z,97.60
2018-06-29T02:04:40.844Z,97.60
2018-06-29T02:07:09.613Z,97.50
2018-06-29T02:09:38.126Z,97.90
2018-06-29T02:12:06.808Z,97.70
2018-06-29T02:14:35.648Z,97.30
2018-06-29T02:17:04.350Z,97.40
2018-06-29T02:19:32.791Z,96.80
2018-06-29T02:22:01.371Z,96.10
2018-06-29T02:24:29.912Z,95.20
2018-06-29T02:26:59.287Z,94.80
2018-06-29T02:29:27.875Z,94.70
2018-06-29T02:31:56.346Z,94.60
2018-06-29T02:34:25.012Z,94.20
2018-06-29T02:36:54.374Z,94.30
2018-06-29T02:39:23.258Z,94.20
2018-06-29T02:41:51.811Z,94.30
2018-06-29T02:44:20.839Z,94.00
2018-06-29T02:46:50.049Z,94.30
2018-06-29T02:49:18.686Z,94.40
2018-06-29T02:51:47.268Z,94.10
2018-06-29T02:54:15.828Z,94.00
2018-06-29T02:56:44.642Z,94.00
2018-06-29T02:59:13.249Z,94.20
2018-06-29T03:01:41.784Z,94.30
2018-06-29T03:04:10.388Z,94.30
2018-06-29T03:06:38.972Z,93.90
2018-06-29T03:09:08.760Z,94.30
2018-06-29T03:11:37.734Z,94.10
2018-06-29T03:14:06.204Z,94.20
2018-06-29T03:16:34.980Z,94.20
2018-06-29T03:19:03.464Z,94.60
2018-06-29T03:21:31.978Z,94.90
2018-06-29T03:24:00.537Z,95.00
2018-06-29T03:26:29.305Z,95.30
2018-06-29T03:28:58.064Z,95.30
2018-06-29T03:31:26.626Z,95.00
2018-06-29T03:33:55.235Z,95.30
2018-06-29T03:36:23.792Z,95.40
2018-06-29T03:38:52.274Z,95.60
2018-06-29T03:41:21.226Z,94.90
2018-06-29T03:43:50.465Z,94.30
2018-06-29T03:46:19.035Z,94.40
2018-06-29T03:48:48.038Z,94.40
2018-06-29T03:51:16.699Z,93.90
2018-06-29T03:53:45.982Z,94.20
2018-06-29T03:56:14.489Z,94.40
2018-06-29T03:58:43.154Z,94.20
2018-06-29T04:01:12.042Z,94.10
2018-06-29T04:03:48.375Z,94.90
2018-06-29T04:06:17.297Z,94.20
2018-06-29T04:08:46.555Z,94.30
2018-06-29T04:11:15.251Z,94.30
2018-06-29T04:13:43.701Z,94.70
2018-06-29T04:16:12.267Z,94.60
2018-06-29T04:18:40.843Z,94.60
2018-06-29T04:21:09.308Z,94.90
2018-06-29T04:23:38.056Z,94.60
2018-06-29T04:26:06.872Z,94.40
2018-06-29T04:28:35.535Z,94.20
2018-06-29T04:31:04.016Z,94.10
2018-06-29T04:33:32.592Z,94.00
2018-06-29T04:36:01.905Z,93.80
2018-06-29T04:38:31.371Z,93.60
2018-06-29T04:40:59.930Z,93.40
2018-06-29T04:43:28.607Z,93.50
2018-06-29T04:45:57.108Z,93.60
2018-06-29T04:50:53.824Z,93.10
2018-06-29T04:53:22.520Z,93.20
2018-06-29T04:55:51.100Z,93.40
2018-06-29T04:58:20.246Z,93.70
2018-06-29T05:00:49.161Z,93.40
2018-06-29T05:03:17.892Z,93.70
2018-06-29T05:05:46.432Z,93.40
2018-06-29T05:08:15.048Z,93.20
2018-06-29T05:10:43.624Z,93.20
2018-06-29T05:13:12.252Z,92.70
2018-06-29T05:15:41.102Z,92.90
2018-06-29T05:18:09.756Z,92.60
2018-06-29T05:20:38.343Z,92.40
2018-06-29T05:23:07.752Z,92.50
2018-06-29T05:25:36.247Z,92.30
2018-06-29T05:28:05.196Z,92.40
2018-06-29T05:30:33.769Z,92.60
2018-06-29T05:33:02.415Z,92.20
2018-06-29T05:35:30.927Z,91.80
2018-06-29T05:37:59.526Z,91.90
2018-06-29T05:40:28.254Z,92.10
2018-06-29T05:42:56.811Z,92.20
2018-06-29T05:45:25.363Z,92.10
2018-06-29T05:47:53.999Z,92.10
2018-06-29T05:50:22.571Z,92.00
2018-06-29T05:52:51.160Z,91.70
2018-06-29T05:55:19.755Z,91.80
2018-06-29T05:57:48.295Z,91.00
2018-06-29T06:00:16.898Z,91.00
2018-06-29T06:02:45.489Z,91.40
2018-06-29T06:05:14.315Z,91.00
2018-06-29T06:07:43.043Z,90.80
2018-06-29T06:10:11.552Z,90.50
2018-06-29T06:12:40.271Z,90.50
2018-06-29T06:15:08.847Z,90.30
2018-06-29T06:17:37.451Z,90.00
2018-06-29T06:20:11.563Z,89.30
2018-06-29T06:22:40.166Z,87.00
2018-06-29T06:25:08.643Z,87.40
2018-06-29T06:27:37.615Z,87.00
2018-06-29T06:30:06.519Z,85.80
2018-06-29T06:32:35.196Z,86.20
2018-06-29T06:35:03.838Z,86.00
2018-06-29T06:40:01.420Z,85.80
2018-06-29T06:42:30.013Z,84.70
2018-06-29T06:44:59.620Z,83.50
2018-06-29T06:47:28.148Z,84.00
2018-06-29T06:49:56.651Z,83.30
2018-06-29T06:52:25.460Z,82.70
2018-06-29T06:54:54.295Z,82.60
2018-06-29T06:57:22.867Z,81.30
2018-06-29T06:59:51.480Z,80.80
2018-06-29T07:02:20.020Z,80.30
2018-06-29T07:04:49.389Z,81.00
2018-06-29T07:07:18.481Z,79.40
2018-06-29T07:12:15.277Z,79.90
2018-06-29T07:14:43.750Z,80.00
2018-06-29T07:17:12.290Z,81.30
2018-06-29T07:19:40.812Z,80.50
2018-06-29T07:22:09.541Z,80.40
2018-06-29T07:24:38.118Z,80.70
2018-06-29T07:27:07.013Z,79.40
2018-06-29T07:29:35.612Z,77.90
2018-06-29T07:32:04.069Z,78.20
2018-06-29T07:34:32.701Z,78.40
2018-06-29T07:37:01.260Z,79.00
2018-06-29T07:39:29.767Z,78.60
2018-06-29T07:41:58.291Z,77.90
2018-06-29T07:44:27.492Z,76.50
2018-06-29T07:46:56.094Z,75.60
2018-06-29T07:49:24.751Z,76.80
2018-06-29T07:51:53.308Z,74.90
2018-06-29T07:54:21.847Z,76.70
2018-06-29T07:56:50.424Z,73.40
2018-06-29T07:59:19.057Z,74.30
2018-06-29T08:01:48.179Z,73.80
2018-06-29T08:04:16.791Z,73.20
2018-06-29T08:06:46.349Z,72.00
2018-06-29T08:09:15.066Z,73.00
2018-06-29T08:11:43.539Z,72.50
2018-06-29T08:14:12.070Z,72.10
2018-06-29T08:16:41.219Z,72.10
2018-06-29T08:21:38.048Z,70.90
2018-06-29T08:24:06.531Z,71.60
2018-06-29T08:26:35.045Z,68.50
2018-06-29T08:29:03.565Z,68.90
2018-06-29T08:31:32.134Z,65.80
2018-06-29T08:34:00.716Z,66.40
2018-06-29T08:36:29.284Z,65.10
2018-06-29T08:38:57.797Z,66.70
2018-06-29T08:41:26.358Z,67.30
2018-06-29T08:43:55.478Z,67.70
2018-06-29T08:46:23.995Z,67.70
2018-06-29T08:48:52.558Z,68.00
2018-06-29T08:51:21.419Z,67.90
2018-06-29T08:53:49.914Z,67.20
2018-06-29T08:56:18.524Z,68.20
2018-06-29T08:58:47.166Z,69.40
2018-06-29T09:01:16.383Z,69.30
2018-06-29T09:03:45.049Z,69.50
2018-06-29T09:06:13.848Z,69.80
2018-06-29T09:08:42.436Z,68.80
2018-06-29T09:11:10.974Z,69.00
2018-06-29T09:13:39.518Z,68.90
2018-06-29T09:16:08.079Z,68.10
2018-06-29T09:18:36.663Z,69.10
2018-06-29T09:21:06.087Z,68.10
2018-06-29T09:23:35.079Z,67.50
2018-06-29T09:26:03.815Z,67.50
2018-06-29T09:28:32.319Z,66.10
2018-06-29T09:31:01.136Z,65.80
2018-06-29T09:33:29.645Z,66.00
2018-06-29T09:35:58.112Z,65.00
2018-06-29T09:38:26.583Z,66.30
2018-06-29T09:40:55.368Z,66.00
2018-06-29T09:43:24.580Z,65.60
2018-06-29T09:45:53.795Z,66.50
2018-06-29T09:48:22.296Z,67.50
2018-06-29T09:50:51.490Z,67.00
2018-06-29T09:53:20.079Z,64.60
2018-06-29T09:55:48.864Z,65.20
2018-06-29T09:58:17.350Z,63.80
2018-06-29T10:00:46.439Z,65.60
2018-06-29T10:05:43.378Z,63.80
2018-06-29T10:08:11.928Z,63.60
2018-06-29T10:10:40.480Z,60.90
2018-06-29T10:13:09.082Z,60.40
2018-06-29T10:15:37.683Z,60.80
2018-06-29T10:18:06.341Z,60.30
2018-06-29T10:20:34.845Z,59.10
2018-06-29T10:23:04.203Z,58.90
2018-06-29T10:25:33.611Z,60.60
2018-06-29T10:28:02.496Z,61.80
2018-06-29T10:30:30.995Z,62.80
2018-06-29T10:32:59.496Z,63.80
2018-06-29T10:35:28.172Z,61.70
2018-06-29T10:37:56.662Z,62.10
2018-06-29T10:40:25.350Z,63.00
2018-06-29T10:42:54.091Z,58.60
2018-06-29T10:45:23.275Z,58.00
2018-06-29T10:47:52.351Z,58.80
2018-06-29T10:50:20.898Z,56.90
2018-06-29T10:52:50.018Z,58.30
2018-06-29T10:55:19.019Z,57.40
2018-06-29T10:57:47.494Z,56.30
2018-06-29T11:00:16.183Z,56.00
2018-06-29T11:02:44.722Z,55.90
2018-06-29T11:05:13.418Z,56.40
2018-06-29T11:07:41.860Z,57.60
2018-06-29T11:10:10.384Z,56.10
2018-06-29T11:12:39.802Z,57.40
2018-06-29T11:15:08.834Z,56.50
2018-06-29T11:17:37.589Z,57.50
2018-06-29T11:20:06.065Z,56.70
2018-06-29T11:22:34.773Z,58.30
2018-06-29T11:25:03.965Z,57.40
2018-06-29T11:27:32.564Z,58.00
2018-06-29T11:30:01.044Z,55.70
2018-06-29T11:32:29.731Z,55.00
2018-06-29T11:34:58.879Z,54.10
2018-06-29T11:37:27.711Z,54.10
2018-06-29T11:39:56.394Z,55.90
2018-06-29T11:42:24.878Z,54.00
2018-06-29T11:44:53.544Z,55.60
2018-06-29T11:47:22.230Z,54.30
2018-06-29T11:49:50.905Z,56.30
2018-06-29T11:52:19.575Z,55.80
2018-06-29T11:54:48.257Z,53.50
2018-06-29T11:57:17.483Z,52.00
2018-06-29T11:59:46.118Z,51.70
2018-06-29T12:02:15.651Z,55.00
2018-06-29T12:04:44.244Z,54.30
2018-06-29T12:07:12.998Z,54.50
2018-06-29T12:09:42.385Z,52.60
2018-06-29T12:12:10.978Z,50.80
2018-06-29T12:14:39.612Z,50.30
2018-06-29T12:17:08.812Z,47.50
2018-06-29T12:19:37.292Z,48.00
2018-06-29T12:22:06.283Z,49.00
2018-06-29T12:24:35.084Z,47.90
2018-06-29T12:27:03.656Z,47.00
2018-06-29T12:29:32.392Z,46.40
2018-06-29T12:32:01.214Z,46.60
2018-06-29T12:34:29.795Z,47.80
2018-06-29T12:36:58.604Z,48.10
2018-06-29T12:39:27.276Z,48.60
2018-06-29T12:41:55.838Z,53.10
2018-06-29T12:44:24.632Z,51.40
2018-06-29T12:46:53.360Z,51.00
2018-06-29T12:49:22.245Z,51.80
2018-06-29T12:51:52.075Z,51.60
2018-06-29T12:54:20.597Z,50.70
2018-06-29T12:56:49.112Z,51.50
2018-06-29T12:59:18.627Z,47.60
2018-06-29T13:01:47.322Z,46.90
2018-06-29T13:04:16.208Z,49.00
2018-06-29T13:06:44.743Z,48.00
2018-06-29T13:09:13.372Z,47.20
2018-06-29T13:11:41.912Z,47.50
2018-06-29T13:14:10.536Z,46.80
2018-06-29T13:16:39.332Z,48.50
2018-06-29T13:19:07.926Z,52.00
2018-06-29T13:21:36.451Z,52.10
2018-06-29T13:24:05.281Z,51.80
2018-06-29T13:26:33.992Z,51.70
2018-06-29T13:29:02.720Z,50.80
2018-06-29T13:31:31.467Z,49.70
2018-06-29T13:34:00.174Z,50.10
2018-06-29T13:36:29.279Z,48.80
2018-06-29T13:38:58.017Z,47.60
2018-06-29T13:41:26.666Z,47.10
2018-06-29T13:43:55.360Z,45.90
2018-06-29T13:46:24.158Z,45.00
2018-06-29T13:48:53.500Z,46.70
2018-06-29T13:51:22.075Z,48.90
2018-06-29T13:53:50.836Z,50.00
2018-06-29T13:56:19.647Z,50.90
2018-06-29T13:58:48.220Z,52.00
2018-06-29T14:01:16.732Z,52.70
2018-06-29T14:03:45.855Z,51.90
2018-06-29T14:06:14.378Z,49.50
2018-06-29T14:08:43.199Z,45.70
2018-06-29T14:11:12.761Z,42.60
2018-06-29T14:13:41.434Z,41.70
2018-06-29T14:16:09.895Z,40.30
2018-06-29T14:18:38.539Z,39.40
2018-06-29T14:21:07.278Z,38.50
2018-06-29T14:23:36.117Z,38.20
2018-06-29T14:26:04.761Z,37.60
2018-06-29T14:28:33.508Z,35.50
2018-06-29T14:31:02.357Z,35.00
2018-06-29T14:33:31.024Z,34.40
2018-06-29T14:35:59.536Z,33.10
2018-06-29T14:38:28.452Z,34.00
2018-06-29T14:40:57.084Z,36.90
2018-06-29T14:43:25.811Z,40.70
2018-06-29T14:45:54.474Z,37.80
2018-06-29T14:48:24.847Z,37.10
2018-06-29T14:50:53.660Z,37.30
2018-06-29T14:53:22.392Z,38.90
2018-06-29T14:55:50.926Z,38.70
2018-06-29T14:58:19.664Z,37.90
2018-06-29T15:00:48.236Z,40.20
2018-06-29T15:03:16.840Z,41.10
2018-06-29T15:05:45.330Z,42.00
2018-06-29T15:08:13.939Z,38.30
2018-06-29T15:10:42.735Z,39.40
2018-06-29T15:13:11.240Z,38.20
2018-06-29T15:15:40.664Z,40.50
2018-06-29T15:18:09.371Z,37.80
2018-06-29T15:20:38.075Z,35.40
2018-06-29T15:23:06.605Z,34.00
2018-06-29T15:25:35.216Z,33.60
2018-06-29T15:28:03.911Z,31.60
2018-06-29T15:30:32.507Z,30.60
2018-06-29T15:33:01.239Z,30.80
2018-06-29T15:35:29.999Z,32.60
2018-06-29T15:37:58.686Z,34.70
2018-06-29T15:40:27.581Z,35.90
2018-06-29T15:42:56.190Z,37.10
2018-06-29T15:45:24.855Z,38.50
2018-06-29T15:47:53.556Z,35.70
2018-06-29T15:50:22.157Z,35.40
2018-06-29T15:52:50.807Z,35.30
2018-06-29T15:55:19.423Z,36.40
2018-06-29T15:57:48.804Z,39.20
2018-06-29T16:00:17.795Z,40.80
2018-06-29T16:02:46.388Z,39.40
2018-06-29T16:05:14.987Z,35.60
2018-06-29T16:07:43.608Z,33.50
2018-06-29T16:10:12.776Z,32.20
2018-06-29T16:12:42.028Z,30.70
2018-06-29T16:15:10.646Z,29.20
2018-06-29T16:17:39.453Z,30.50
2018-06-29T16:20:08.147Z,30.20
2018-06-29T16:22:36.883Z,30.60
2018-06-29T16:25:05.568Z,31.70
2018-06-29T16:27:34.324Z,30.90
2018-06-29T16:30:03.038Z,31.40
2018-06-29T16:32:31.586Z,31.20
2018-06-29T16:35:00.216Z,32.30
2018-06-29T16:37:29.254Z,31.50
2018-06-29T16:39:57.832Z,33.30
2018-06-29T16:42:26.899Z,32.00
2018-06-29T16:44:55.635Z,33.20
2018-06-29T16:47:24.438Z,34.00
2018-06-29T16:52:21.671Z,32.40
2018-06-29T16:54:50.284Z,33.10
2018-06-29T16:57:19.116Z,33.50
2018-06-29T16:59:47.744Z,35.90
2018-06-29T17:02:16.325Z,39.80
2018-06-29T17:04:45.133Z,42.30
2018-06-29T17:07:13.793Z,44.40
2018-06-29T17:09:42.286Z,46.10
2018-06-29T17:12:10.922Z,47.70
2018-06-29T17:14:39.900Z,48.60
2018-06-29T17:17:08.588Z,48.40
2018-06-29T17:19:37.432Z,46.60
2018-06-29T17:22:06.523Z,44.40
2018-06-29T17:27:03.983Z,39.20
2018-06-29T17:29:32.583Z,39.00
2018-06-29T17:32:01.208Z,36.80
2018-06-29T17:34:29.870Z,35.70
2018-06-29T17:36:59.292Z,34.30
2018-06-29T17:39:28.120Z,34.10
2018-06-29T17:41:57.120Z,34.50
2018-06-29T17:44:25.686Z,35.90
2018-06-29T17:46:55.081Z,35.70
2018-06-29T17:49:23.763Z,35.70
2018-06-29T17:51:52.376Z,35.50
2018-06-29T17:54:21.081Z,36.00
2018-06-29T17:56:49.754Z,36.20
2018-06-29T18:01:47.759Z,35.40
2018-06-29T18:04:16.639Z,35.80
2018-06-29T18:06:45.355Z,35.10
2018-06-29T18:09:14.012Z,35.40
2018-06-29T18:11:42.772Z,37.40
2018-06-29T18:14:11.971Z,40.20
2018-06-29T18:16:40.639Z,43.50
2018-06-29T18:19:09.241Z,44.60
2018-06-29T18:21:37.905Z,46.20
2018-06-29T18:24:07.294Z,47.50
2018-06-29T18:26:36.699Z,49.60
2018-06-29T18:29:05.820Z,50.90
2018-06-29T18:34:03.331Z,52.50
2018-06-29T18:36:32.680Z,52.60
2018-06-29T18:39:01.745Z,54.30
2018-06-29T18:41:30.283Z,54.70
2018-06-29T18:43:58.831Z,54.70
2018-06-29T18:46:27.348Z,56.00
2018-06-29T18:48:55.996Z,57.30
2018-06-29T18:51:24.809Z,58.80
2018-06-29T18:53:53.765Z,61.30
2018-06-29T18:56:22.506Z,62.70
2018-06-29T18:58:51.605Z,64.40
2018-06-29T19:01:20.510Z,65.60
2018-06-29T19:03:49.042Z,66.20
2018-06-29T19:08:46.155Z,69.10
2018-06-29T19:11:15.052Z,69.80
2018-06-29T19:13:44.003Z,71.50
2018-06-29T19:18:41.575Z,73.60
2018-06-29T19:21:10.269Z,73.80
2018-06-29T19:23:39.013Z,74.30
2018-06-29T19:26:07.769Z,74.40
2018-06-29T19:28:36.996Z,74.80
2018-06-29T19:31:06.800Z,75.70
2018-06-29T19:33:35.863Z,76.00
2018-06-29T19:36:04.665Z,76.30
2018-06-29T19:38:33.496Z,76.60
2018-06-29T19:41:02.140Z,76.90
2018-06-29T19:43:30.754Z,77.60
2018-06-29T19:45:59.389Z,77.80
2018-06-29T19:48:27.897Z,78.50
2018-06-29T19:50:56.436Z,78.20
2018-06-29T19:53:25.131Z,78.70
2018-06-29T19:55:53.786Z,79.60
2018-06-29T19:58:22.656Z,80.30
2018-06-29T20:00:51.450Z,81.00
2018-06-29T20:03:20.273Z,81.70
2018-06-29T20:05:48.927Z,82.00
2018-06-29T20:08:17.607Z,82.80
2018-06-29T20:10:46.259Z,82.80
2018-06-29T20:13:14.972Z,83.10
2018-06-29T20:15:43.781Z,83.20
2018-06-29T20:18:12.376Z,84.50
2018-06-29T20:20:41.476Z,84.70
2018-06-29T20:23:10.127Z,84.60
2018-06-29T20:25:38.775Z,85.40
2018-06-29T20:30:36.232Z,86.20
2018-06-29T20:33:05.064Z,86.60
2018-06-29T20:35:33.731Z,86.80
2018-06-29T20:38:02.507Z,87.40
2018-06-29T20:40:31.047Z,87.60
2018-06-29T20:42:59.888Z,88.60
2018-06-29T20:45:28.693Z,88.30
2018-06-29T20:47:57.471Z,88.80
2018-06-29T20:52:54.432Z,89.00
2018-06-29T20:55:23.300Z,89.10
2018-06-29T20:57:52.221Z,89.20
2018-06-29T21:00:20.787Z,89.40
2018-06-29T21:02:49.442Z,89.80
2018-06-29T21:05:18.025Z,90.20
2018-06-29T21:07:46.910Z,90.30
2018-06-29T21:10:15.935Z,90.30
2018-06-29T21:12:44.655Z,90.40
2018-06-29T21:15:14.608Z,90.30
2018-06-29T21:17:43.518Z,90.50
2018-06-29T21:20:12.360Z,90.50
2018-06-29T21:22:41.768Z,90.60
2018-06-29T21:25:10.401Z,90.50
2018-06-29T21:27:39.193Z,90.50
2018-06-29T21:30:08.471Z,90.80
2018-06-29T21:32:37.113Z,90.80
2018-06-29T21:35:06.360Z,90.90
2018-06-29T21:37:34.896Z,91.20
2018-06-29T21:40:04.598Z,91.40
2018-06-29T21:42:33.180Z,91.30
2018-06-29T21:45:02.012Z,91.30
2018-06-29T21:47:31.296Z,91.30
2018-06-29T21:50:00.364Z,91.40
2018-06-29T21:52:29.194Z,91.50
2018-06-29T21:54:57.753Z,91.70
2018-06-29T21:57:27.019Z,91.80
2018-06-29T21:59:55.696Z,91.90
2018-06-29T22:02:24.397Z,91.80
2018-06-29T22:04:52.971Z,91.70
2018-06-29T22:07:21.783Z,91.90
2018-06-29T22:09:50.483Z,92.30
2018-06-29T22:12:19.147Z,92.50
2018-06-29T22:14:47.922Z,92.50
2018-06-29T22:17:16.447Z,92.30
2018-06-29T22:19:45.103Z,92.10
2018-06-29T22:22:13.796Z,92.20
2018-06-29T22:24:42.354Z,92.10
2018-06-29T22:27:11.076Z,92.10
2018-06-29T22:29:39.653Z,92.20
2018-06-29T22:32:08.503Z,92.30
2018-06-29T22:34:37.155Z,92.30
2018-06-29T22:37:05.769Z,92.40
2018-06-29T22:39:34.299Z,92.50
2018-06-29T22:42:02.872Z,92.60
2018-06-29T22:44:31.558Z,92.90
2018-06-29T22:47:00.141Z,92.70
2018-06-29T22:49:28.637Z,92.80
2018-06-29T22:51:57.496Z,92.80
2018-06-29T22:54:26.220Z,92.90
2018-06-29T22:56:54.953Z,93.10
2018-06-29T22:59:23.571Z,93.20
2018-06-29T23:01:52.024Z,93.10
2018-06-29T23:04:20.644Z,93.40
2018-06-29T23:06:49.271Z,93.30
2018-06-29T23:09:17.990Z,93.30
2018-06-29T23:11:47.229Z,93.20
2018-06-29T23:14:15.920Z,93.30
2018-06-29T23:16:44.429Z,93.30
2018-06-29T23:19:12.903Z,93.30
2018-06-29T23:21:41.391Z,93.20
2018-06-29T23:24:09.905Z,93.10
2018-06-29T23:26:38.525Z,93.10
2018-06-29T23:29:07.932Z,93.40
2018-06-29T23:31:36.511Z,93.40
2018-06-29T23:34:05.236Z,93.50
2018-06-29T23:36:33.850Z,93.70
2018-06-29T23:39:03.112Z,93.80
2018-06-29T23:41:31.703Z,94.10
2018-06-29T23:44:00.420Z,94.10
2018-06-29T23:46:29.329Z,94.10
2018-06-29T23:48:57.942Z,94.10
2018-06-29T23:51:26.426Z,94.10
2018-06-29T23:53:55.043Z,94.60
2018-06-29T23:56:24.105Z,94.60
2018-06-29T23:58:52.694Z,94.50
